Time;durP1;ratioP1;P1;durP2;ratioP2;P2;SDS_P1;SDS_P2;PMS_P1;PMS_P2;Temp;Humidity;BMP_temperature;BMP_pressure;BME280_temperature;BME280_humidity;BME280_pressure;Samples;Min_cycle;Max_cycle;Signal;HPM_P1;HPM_P2
2022/04/20 00:02:18;;;;;;;3.20;1.70;;;9.60;99.90;;;;;;5066824;28;20459;-82
2022/04/20 00:04:45;;;;;;;4.10;2.27;;;9.60;99.90;;;;;;5065115;28;20462;-80
2022/04/20 00:07:11;;;;;;;4.67;2.40;;;9.60;99.90;;;;;;5062085;28;20484;-80
2022/04/20 00:09:39;;;;;;;8.00;2.23;;;9.60;99.90;;;;;;5062457;28;20478;-81
2022/04/20 00:12:08;;;;;;;3.53;2.10;;;9.50;99.90;;;;;;5068803;28;20507;-83
2022/04/20 00:14:35;;;;;;;5.50;2.30;;;9.50;99.90;;;;;;5062618;28;20455;-83
2022/04/20 00:17:01;;;;;;;3.20;2.23;;;9.50;99.90;;;;;;5062296;28;20956;-83
2022/04/20 00:19:28;;;;;;;4.00;2.40;;;9.50;99.90;;;;;;5058793;28;20562;-83
2022/04/20 00:21:55;;;;;;;4.50;2.30;;;9.50;99.90;;;;;;5058195;28;20927;-83
2022/04/20 00:24:22;;;;;;;3.70;2.00;;;9.40;99.90;;;;;;5063441;28;20463;-84
2022/04/20 00:26:50;;;;;;;3.60;2.47;;;9.40;99.90;;;;;;5063030;28;20460;-83
2022/04/20 00:29:17;;;;;;;4.87;2.40;;;9.40;99.90;;;;;;5057332;28;20486;-82
2022/04/20 00:31:43;;;;;;;3.30;1.90;;;9.40;99.90;;;;;;5057549;28;20516;-82
2022/04/20 00:34:10;;;;;;;5.80;2.03;;;9.40;99.90;;;;;;5056664;28;20539;-82
2022/04/20 00:36:37;;;;;;;4.20;2.23;;;9.40;99.90;;;;;;5058979;28;20458;-82
2022/04/20 00:39:04;;;;;;;3.33;2.00;;;9.40;99.90;;;;;;5055827;28;20482;-82
2022/04/20 00:41:31;;;;;;;5.47;2.33;;;9.50;99.90;;;;;;5057882;28;20458;-81
2022/04/20 00:44:00;;;;;;;4.87;2.40;;;9.50;99.90;;;;;;5058332;28;20455;-82
2022/04/20 00:46:27;;;;;;;3.70;2.17;;;9.50;99.90;;;;;;5057095;28;20938;-81
2022/04/20 00:48:56;;;;;;;3.00;2.20;;;9.50;99.90;;;;;;5053923;28;20474;-82
2022/04/20 00:51:23;;;;;;;3.40;2.40;;;9.50;99.90;;;;;;5049483;28;21022;-82
2022/04/20 00:53:49;;;;;;;6.30;2.30;;;9.50;99.90;;;;;;5061339;28;20450;-82
2022/04/20 00:56:16;;;;;;;4.00;2.67;;;9.40;99.90;;;;;;5057022;28;20473;-81
2022/04/20 00:58:44;;;;;;;4.13;2.13;;;9.70;99.90;;;;;;5053050;28;20837;-82
2022/04/20 01:01:12;;;;;;;5.23;2.10;;;9.40;99.90;;;;;;5053493;28;20570;-81
2022/04/20 01:03:39;;;;;;;4.97;2.47;;;9.40;99.90;;;;;;5054223;28;20455;-80
2022/04/20 01:06:07;;;;;;;3.57;2.47;;;9.40;99.90;;;;;;5056653;28;20451;-80
2022/04/20 01:08:34;;;;;;;3.50;2.40;;;9.30;99.90;;;;;;5055750;28;20449;-80
2022/04/20 01:11:01;;;;;;;6.83;2.83;;;9.30;99.90;;;;;;5056383;28;20552;-80
2022/04/20 01:13:28;;;;;;;5.80;2.20;;;9.30;99.90;;;;;;5057272;28;20880;-80
2022/04/20 01:15:55;;;;;;;4.50;2.47;;;9.20;99.90;;;;;;5057990;28;20455;-80
2022/04/20 01:18:25;;;;;;;4.47;2.30;;;9.30;99.90;;;;;;5057029;28;20449;-80
2022/04/20 01:20:53;;;;;;;5.40;2.83;;;9.20;99.90;;;;;;5056278;28;20483;-80
2022/04/20 01:23:20;;;;;;;3.37;2.30;;;9.20;99.90;;;;;;5057141;28;20449;-80
2022/04/20 01:25:47;;;;;;;5.53;2.57;;;9.20;99.90;;;;;;5055806;28;20460;-80
2022/04/20 01:28:15;;;;;;;3.90;1.90;;;9.10;99.90;;;;;;5055575;28;20950;-82
2022/04/20 01:30:42;;;;;;;4.87;2.20;;;9.10;99.90;;;;;;5053413;28;20516;-83
2022/04/20 01:33:08;;;;;;;4.33;2.30;;;9.10;99.90;;;;;;5053460;28;20487;-82
2022/04/20 01:35:35;;;;;;;6.83;2.17;;;9.10;99.90;;;;;;5053612;28;20454;-81
2022/04/20 01:38:03;;;;;;;5.93;2.60;;;9.00;99.90;;;;;;5053444;28;20455;-82
2022/04/20 01:40:31;;;;;;;5.00;2.20;;;8.90;99.90;;;;;;5053232;28;20500;-82
2022/04/20 01:42:58;;;;;;;6.00;2.43;;;9.00;99.90;;;;;;5054033;28;20451;-82
2022/04/20 01:45:25;;;;;;;5.10;2.53;;;9.00;99.90;;;;;;5054587;28;20463;-82
2022/04/20 01:47:51;;;;;;;3.80;2.30;;;8.90;99.90;;;;;;5055268;28;20458;-80
2022/04/20 01:50:18;;;;;;;3.77;2.27;;;8.90;99.90;;;;;;5050076;28;20488;-80
2022/04/20 01:52:49;;;;;;;7.33;2.50;;;8.90;99.90;;;;;;5053778;28;20490;-80
2022/04/20 01:55:17;;;;;;;3.77;2.17;;;8.90;99.90;;;;;;5053408;28;20455;-81
2022/04/20 01:57:44;;;;;;;4.23;2.37;;;8.90;99.90;;;;;;5055167;28;20449;-82
2022/04/20 02:00:12;;;;;;;7.47;2.23;;;8.90;99.90;;;;;;5054908;28;20483;-79
2022/04/20 02:02:38;;;;;;;3.93;2.37;;;9.00;99.90;;;;;;5053874;28;20447;-79
2022/04/20 02:05:07;;;;;;;5.20;2.80;;;8.90;99.90;;;;;;5055113;28;20453;-81
2022/04/20 02:07:34;;;;;;;4.97;2.70;;;8.90;99.90;;;;;;5054977;28;20466;-79
2022/04/20 02:10:02;;;;;;;3.40;2.50;;;8.80;99.90;;;;;;5053648;28;20476;-81
2022/04/20 02:12:30;;;;;;;4.47;2.60;;;8.80;99.90;;;;;;5055389;28;20573;-82
2022/04/20 02:14:57;;;;;;;4.50;2.27;;;8.80;99.90;;;;;;5054404;28;20461;-80
2022/04/20 02:17:24;;;;;;;4.03;2.23;;;8.80;99.90;;;;;;5034731;28;20450;-80
2022/04/20 02:19:51;;;;;;;4.17;2.07;;;8.80;99.90;;;;;;5048331;28;20833;-79
2022/04/20 02:22:18;;;;;;;3.53;2.00;;;8.80;99.90;;;;;;5054620;28;20452;-82
2022/04/20 02:24:45;;;;;;;4.60;2.10;;;8.80;99.90;;;;;;5054541;28;20468;-82
2022/04/20 02:27:13;;;;;;;4.57;2.50;;;8.70;99.90;;;;;;5054874;28;20845;-80
2022/04/20 02:29:41;;;;;;;9.10;2.33;;;8.70;99.90;;;;;;5054215;28;20531;-80
2022/04/20 02:32:09;;;;;;;3.80;2.37;;;8.70;99.90;;;;;;5054147;28;20510;-81
2022/04/20 02:34:36;;;;;;;6.40;2.33;;;8.70;99.90;;;;;;5054349;28;20796;-80
2022/04/20 02:37:05;;;;;;;4.10;2.20;;;8.60;99.90;;;;;;5054239;28;20544;-80
2022/04/20 02:39:32;;;;;;;7.77;2.53;;;8.60;99.90;;;;;;5053659;28;20473;-80
2022/04/20 02:41:59;;;;;;;7.03;3.10;;;8.50;99.90;;;;;;5053586;28;20460;-81
2022/04/20 02:44:27;;;;;;;3.90;2.33;;;8.50;99.90;;;;;;5055134;28;20566;-79
2022/04/20 02:46:55;;;;;;;4.50;2.50;;;8.40;99.90;;;;;;5053793;28;20453;-81
2022/04/20 02:49:22;;;;;;;4.93;2.87;;;8.40;99.90;;;;;;5055268;28;20480;-80
2022/04/20 02:51:49;;;;;;;6.20;2.50;;;8.30;99.90;;;;;;5056045;28;20490;-82
2022/04/20 02:54:16;;;;;;;4.40;2.60;;;8.30;99.90;;;;;;5058202;28;20844;-80
2022/04/20 02:56:42;;;;;;;4.77;2.30;;;8.20;99.90;;;;;;5057333;28;20456;-80
2022/04/20 02:59:09;;;;;;;4.23;2.33;;;8.30;99.90;;;;;;5056582;28;20479;-82
2022/04/20 03:01:36;;;;;;;3.50;2.40;;;8.30;99.90;;;;;;5058209;28;20435;-80
2022/04/20 03:04:05;;;;;;;4.57;2.30;;;8.30;99.90;;;;;;5057084;28;20478;-82
2022/04/20 03:06:31;;;;;;;5.53;2.90;;;8.20;99.90;;;;;;5057497;28;20452;-81
2022/04/20 03:08:58;;;;;;;5.30;2.70;;;8.20;99.90;;;;;;5057518;28;20468;-82
2022/04/20 03:11:25;;;;;;;5.43;2.77;;;8.20;99.90;;;;;;5057345;28;20465;-80
2022/04/20 03:13:52;;;;;;;9.27;3.17;;;8.10;99.90;;;;;;5056900;28;20484;-82
2022/04/20 03:16:19;;;;;;;6.03;2.90;;;8.10;99.90;;;;;;5057991;28;20448;-80
2022/04/20 03:18:45;;;;;;;4.50;2.63;;;8.20;99.90;;;;;;5055770;28;20490;-79
2022/04/20 03:21:14;;;;;;;6.30;2.80;;;8.00;99.90;;;;;;5044258;28;20466;-81
2022/04/20 03:23:40;;;;;;;4.47;2.93;;;7.90;99.90;;;;;;5044009;28;20960;-81
2022/04/20 03:26:08;;;;;;;4.50;2.60;;;8.00;99.90;;;;;;5061522;28;20456;-81
2022/04/20 03:28:34;;;;;;;6.53;3.60;;;8.00;99.90;;;;;;5062399;28;20492;-82
2022/04/20 03:31:02;;;;;;;7.33;2.70;;;8.00;99.90;;;;;;5061529;28;20452;-80
2022/04/20 03:33:28;;;;;;;7.03;3.43;;;7.90;99.90;;;;;;5063833;28;20564;-81
2022/04/20 03:35:55;;;;;;;5.67;2.90;;;7.80;99.90;;;;;;5063776;28;20909;-80
2022/04/20 03:38:24;;;;;;;4.83;2.97;;;7.80;99.90;;;;;;5059875;28;20454;-80
2022/04/20 03:40:51;;;;;;;5.80;3.07;;;7.70;99.90;;;;;;5061469;28;20468;-82
2022/04/20 03:43:18;;;;;;;5.03;2.77;;;7.70;99.90;;;;;;5062849;28;20458;-81
2022/04/20 03:45:44;;;;;;;6.13;3.13;;;7.70;99.90;;;;;;5064066;28;20459;-82
2022/04/20 03:48:11;;;;;;;5.13;3.13;;;7.70;99.90;;;;;;5062922;28;20814;-82
2022/04/20 03:50:38;;;;;;;9.67;3.90;;;7.70;99.90;;;;;;5062117;28;20483;-81
2022/04/20 03:53:05;;;;;;;4.63;3.17;;;7.60;99.90;;;;;;5060334;28;20491;-84
2022/04/20 03:55:33;;;;;;;6.30;3.00;;;7.60;99.90;;;;;;5056531;28;20474;-81
2022/04/20 03:58:00;;;;;;;5.20;3.10;;;7.60;99.90;;;;;;5055296;28;20526;-82
2022/04/20 04:00:28;;;;;;;7.33;3.30;;;7.60;99.90;;;;;;5054975;28;20841;-82
2022/04/20 04:02:55;;;;;;;7.63;4.00;;;7.50;99.90;;;;;;5055292;28;20493;-82
2022/04/20 04:05:22;;;;;;;4.93;3.10;;;7.50;99.90;;;;;;5055295;28;20454;-82
2022/04/20 04:07:49;;;;;;;4.60;3.00;;;7.50;99.90;;;;;;5055530;28;20539;-82
2022/04/20 04:10:16;;;;;;;5.07;3.43;;;7.50;99.90;;;;;;5053995;28;20472;-82
2022/04/20 04:12:44;;;;;;;7.83;3.60;;;7.40;99.90;;;;;;5054998;28;20577;-82
2022/04/20 04:15:11;;;;;;;7.47;3.10;;;7.40;99.90;;;;;;5054993;28;20492;-82
2022/04/20 04:17:38;;;;;;;8.20;2.93;;;7.40;99.90;;;;;;5059243;28;20452;-85
2022/04/20 04:20:07;;;;;;;6.50;3.23;;;7.40;99.90;;;;;;5063212;28;20550;-85
2022/04/20 04:22:36;;;;;;;4.27;3.13;;;7.40;99.90;;;;;;5073368;28;20471;-83
2022/04/20 04:25:03;;;;;;;6.13;3.10;;;7.40;99.90;;;;;;5063058;28;20454;-84
2022/04/20 04:27:30;;;;;;;11.10;3.57;;;7.40;99.90;;;;;;5063984;28;20472;-84
2022/04/20 04:30:00;;;;;;;4.60;3.03;;;7.40;99.90;;;;;;5063293;28;20484;-85
2022/04/20 04:32:26;;;;;;;4.20;3.17;;;7.30;99.90;;;;;;5063236;28;20484;-86
2022/04/20 04:34:53;;;;;;;7.30;3.23;;;7.30;99.90;;;;;;5062074;28;20473;-84
2022/04/20 04:37:20;;;;;;;4.67;3.03;;;7.30;99.90;;;;;;5057477;28;20456;-85
2022/04/20 04:39:47;;;;;;;4.73;2.80;;;7.40;99.90;;;;;;5057301;28;20468;-84
2022/04/20 04:42:14;;;;;;;4.47;2.63;;;7.40;99.90;;;;;;5055714;28;20455;-84
2022/04/20 04:44:40;;;;;;;4.80;2.77;;;7.40;99.90;;;;;;5057362;28;20550;-84
2022/04/20 04:49:53;;;;;;;7.00;3.37;;;7.40;99.90;;;;;;5056654;28;20460;-83
2022/04/20 04:52:20;;;;;;;7.33;3.27;;;7.50;99.90;;;;;;5058714;28;20443;-83
2022/04/20 04:54:47;;;;;;;6.47;3.40;;;7.40;99.90;;;;;;5061100;28;20458;-84
2022/04/20 04:57:13;;;;;;;6.83;2.73;;;7.50;99.90;;;;;;5060403;28;20789;-83
2022/04/20 04:59:41;;;;;;;4.00;2.77;;;7.50;99.90;;;;;;5060410;28;20498;-84
2022/04/20 05:02:10;;;;;;;8.13;3.40;;;7.50;99.90;;;;;;5058280;28;20523;-83
2022/04/20 05:04:39;;;;;;;6.30;3.30;;;7.50;99.90;;;;;;5059190;28;20527;-83
2022/04/20 05:07:06;;;;;;;5.30;3.30;;;7.50;99.90;;;;;;5057621;28;20462;-84
2022/04/20 05:09:33;;;;;;;5.07;3.50;;;7.50;99.90;;;;;;5055536;28;20532;-84
2022/04/20 05:12:01;;;;;;;5.70;3.50;;;7.60;99.90;;;;;;5054984;28;20451;-84
2022/04/20 05:14:28;;;;;;;5.30;3.30;;;7.60;99.90;;;;;;5055916;28;20487;-83
2022/04/20 05:16:55;;;;;;;7.60;3.70;;;7.60;99.90;;;;;;5054662;28;20469;-82
2022/04/20 05:19:38;;;;;;;4.90;2.97;;;7.50;99.90;;;;;;5049874;28;20483;-83
2022/04/20 05:22:06;;;;;;;9.83;3.70;;;7.70;99.90;;;;;;5052454;28;20456;-84
2022/04/20 05:24:35;;;;;;;7.17;3.50;;;7.70;99.90;;;;;;5051416;28;20456;-83
2022/04/20 05:27:02;;;;;;;6.30;3.20;;;7.70;99.90;;;;;;5048921;28;20463;-83
2022/04/20 05:29:29;;;;;;;5.20;3.07;;;7.80;99.90;;;;;;5052434;28;20470;-83
2022/04/20 05:31:56;;;;;;;7.33;3.10;;;7.90;99.90;;;;;;5051324;28;20456;-84
2022/04/20 05:34:26;;;;;;;4.40;2.73;;;7.90;99.90;;;;;;5054738;28;20496;-83
2022/04/20 05:42:31;;;;;;;5.50;3.53;;;8.00;99.90;;;;;;5047010;28;20431;-82
2022/04/20 05:44:58;;;;;;;5.80;3.10;;;8.10;99.90;;;;;;5046957;28;20918;-83
2022/04/20 05:47:25;;;;;;;6.93;3.07;;;8.20;99.90;;;;;;5045201;28;20473;-83
2022/04/20 05:49:52;;;;;;;5.30;3.40;;;8.20;99.90;;;;;;5050381;28;20564;-84
2022/04/20 05:52:20;;;;;;;6.10;3.20;;;8.20;99.90;;;;;;5054256;28;20451;-85
2022/04/20 05:54:47;;;;;;;6.50;3.10;;;8.30;99.90;;;;;;5063193;28;20495;-86
2022/04/20 05:57:13;;;;;;;5.87;3.47;;;8.40;99.90;;;;;;5051732;28;20488;-85
2022/04/20 05:59:40;;;;;;;3.53;2.43;;;8.40;99.90;;;;;;5051782;28;20482;-86
2022/04/20 06:02:07;;;;;;;6.00;3.40;;;8.50;99.90;;;;;;5048535;28;20465;-85
2022/04/20 06:04:34;;;;;;;5.50;3.60;;;8.60;99.90;;;;;;5053328;28;20450;-84
2022/04/20 06:07:00;;;;;;;6.17;2.33;;;8.60;99.90;;;;;;5052037;28;20462;-84
2022/04/20 06:09:29;;;;;;;4.60;2.87;;;8.70;99.90;;;;;;5051473;28;20465;-84
2022/04/20 06:11:58;;;;;;;4.30;3.10;;;8.70;99.90;;;;;;5049529;28;21334;-84
2022/04/20 06:14:25;;;;;;;5.17;2.70;;;8.80;99.90;;;;;;5051335;28;20910;-83
2022/04/20 06:16:52;;;;;;;5.67;3.40;;;8.80;99.90;;;;;;5057254;28;20477;-83
2022/04/20 06:19:18;;;;;;;4.70;2.73;;;8.90;99.90;;;;;;5054607;28;20869;-83
2022/04/20 06:21:45;;;;;;;5.67;3.53;;;9.00;99.90;;;;;;5048934;28;20472;-84
2022/04/20 06:24:15;;;;;;;6.07;3.60;;;9.10;99.90;;;;;;5053966;28;20446;-82
2022/04/20 06:27:02;;;;;;;6.67;3.27;;;9.20;99.90;;;;;;5049377;28;20852;-84
2022/04/20 06:29:28;;;;;;;6.07;3.47;;;9.30;99.90;;;;;;5045237;28;20817;-84
2022/04/20 06:31:56;;;;;;;9.67;6.60;;;9.40;99.90;;;;;;5052171;28;20444;-84
2022/04/20 06:34:23;;;;;;;9.67;6.93;;;9.50;99.90;;;;;;5055756;28;20490;-84
2022/04/20 06:36:49;;;;;;;14.20;6.80;;;9.50;99.90;;;;;;5054273;28;20472;-84
2022/04/20 06:42:31;;;;;;;14.63;8.03;;;9.80;99.90;;;;;;5050444;28;20459;-84
2022/04/20 06:44:58;;;;;;;11.80;7.60;;;9.90;99.90;;;;;;5057224;28;20447;-84
2022/04/20 06:47:24;;;;;;;10.97;7.90;;;9.90;99.90;;;;;;5057098;28;20450;-84
2022/04/20 06:49:53;;;;;;;12.23;7.47;;;9.90;99.90;;;;;;5055972;28;20477;-84
2022/04/20 07:00:36;;;;;;;11.20;7.13;;;10.20;99.90;;;;;;5056545;28;20471;-84
2022/04/20 07:03:06;;;;;;;9.70;7.23;;;10.40;99.90;;;;;;5055507;28;20644;-84
2022/04/20 07:05:33;;;;;;;11.13;6.63;;;10.50;99.90;;;;;;5057024;28;20446;-84
2022/04/20 07:08:01;;;;;;;15.27;6.30;;;10.50;99.90;;;;;;5057698;28;20447;-83
2022/04/20 07:10:28;;;;;;;12.50;5.93;;;10.60;99.90;;;;;;5052444;28;20500;-83
2022/04/20 07:12:56;;;;;;;8.60;5.27;;;10.80;99.90;;;;;;5057610;28;20533;-84
2022/04/20 07:15:26;;;;;;;11.47;4.73;;;10.90;99.90;;;;;;5055377;28;20455;-83
2022/04/20 07:17:53;;;;;;;7.20;4.53;;;11.00;99.90;;;;;;5056073;28;20947;-84
2022/04/20 07:20:20;;;;;;;7.60;4.50;;;11.10;99.90;;;;;;5057396;28;20479;-84
2022/04/20 07:22:48;;;;;;;5.00;3.90;;;11.20;99.90;;;;;;5058508;28;20444;-85
2022/04/20 07:25:16;;;;;;;6.80;3.27;;;11.40;99.90;;;;;;5058710;28;20461;-85
2022/04/20 07:27:45;;;;;;;7.93;4.20;;;11.60;99.90;;;;;;5055635;28;20842;-85
2022/04/20 07:30:14;;;;;;;6.00;3.97;;;11.90;99.90;;;;;;5055639;28;20491;-85
2022/04/20 07:32:41;;;;;;;6.47;3.70;;;12.10;99.90;;;;;;5060748;28;20451;-85
2022/04/20 07:35:08;;;;;;;7.90;3.27;;;12.50;99.90;;;;;;5072548;28;20876;-85
2022/04/20 07:37:35;;;;;;;6.87;2.70;;;13.10;99.90;;;;;;5058578;28;20472;-85
2022/04/20 07:40:02;;;;;;;6.07;2.80;;;13.50;99.90;;;;;;5058110;28;20506;-85
2022/04/20 07:42:29;;;;;;;5.07;2.97;;;13.70;99.90;;;;;;5052134;28;20456;-85
2022/04/20 07:44:56;;;;;;;5.70;2.70;;;13.70;99.90;;;;;;5058082;28;20837;-85
2022/04/20 07:47:25;;;;;;;4.03;2.40;;;13.90;99.90;;;;;;5052089;28;20469;-85
2022/04/20 07:52:38;;;;;;;7.70;2.83;;;13.90;99.90;;;;;;5046297;28;20438;-85
2022/04/20 07:55:10;;;;;;;6.57;2.90;;;13.70;99.90;;;;;;5048311;28;20493;-85
2022/04/20 07:57:36;;;;;;;5.57;2.00;;;13.90;99.90;;;;;;5052376;28;20457;-85
2022/04/20 08:00:04;;;;;;;4.93;2.53;;;14.00;99.90;;;;;;5047696;28;20483;-84
2022/04/20 08:02:32;;;;;;;5.90;2.87;;;14.40;99.90;;;;;;5049042;28;20448;-85
2022/04/20 08:04:59;;;;;;;6.60;2.43;;;15.50;99.90;;;;;;5049617;28;20888;-85
2022/04/20 08:07:27;;;;;;;6.40;2.83;;;16.50;99.90;;;;;;5050262;28;20496;-85
2022/04/20 08:09:53;;;;;;;4.83;3.10;;;17.10;99.90;;;;;;5045063;28;20549;-85
2022/04/20 08:12:20;;;;;;;4.20;2.90;;;17.80;99.90;;;;;;5057209;28;20454;-85
2022/04/20 08:14:47;;;;;;;4.00;2.50;;;19.40;99.90;;;;;;5056795;28;20931;-85
2022/04/20 08:17:14;;;;;;;6.57;3.20;;;20.80;98.90;;;;;;5058263;28;20449;-85
2022/04/20 08:19:42;;;;;;;5.80;2.80;;;22.30;95.70;;;;;;5054304;28;20483;-86
2022/04/20 08:22:09;;;;;;;6.87;2.47;;;23.70;90.00;;;;;;5051395;28;20482;-85
2022/04/20 08:24:36;;;;;;;4.37;2.60;;;24.60;82.90;;;;;;5056868;28;20523;-84
2022/04/20 08:27:03;;;;;;;3.60;2.50;;;24.80;80.00;;;;;;5053653;28;20448;-84
2022/04/20 08:29:29;;;;;;;5.27;2.50;;;26.20;79.10;;;;;;5054770;28;21029;-83
2022/04/20 08:31:56;;;;;;;6.20;3.00;;;27.20;70.80;;;;;;5051421;28;20527;-84
2022/04/20 08:34:23;;;;;;;4.13;2.67;;;26.50;63.10;;;;;;5055361;28;20491;-84
2022/04/20 08:36:51;;;;;;;2.90;2.00;;;26.70;59.40;;;;;;5054815;28;20546;-84
2022/04/20 08:39:18;;;;;;;5.27;2.83;;;27.60;60.30;;;;;;5055888;28;20475;-83
2022/04/20 08:41:48;;;;;;;6.27;3.37;;;26.90;56.10;;;;;;5055183;28;20452;-83
2022/04/20 08:44:20;;;;;;;5.73;3.33;;;26.30;58.10;;;;;;5055628;28;20470;-83
2022/04/20 08:46:48;;;;;;;5.70;3.13;;;27.20;57.60;;;;;;5054307;28;20916;-83
2022/04/20 08:49:15;;;;;;;6.53;2.50;;;27.90;53.40;;;;;;5056213;28;20564;-84
2022/04/20 08:54:30;;;;;;;3.80;2.30;;;27.60;53.10;;;;;;5055420;28;20990;-84
2022/04/20 08:59:44;;;;;;;5.33;2.33;;;27.70;50.20;;;;;;5069893;28;20502;-84
2022/04/20 09:02:12;;;;;;;4.40;1.97;;;28.80;53.60;;;;;;5056225;28;20448;-83
2022/04/20 09:04:39;;;;;;;3.33;2.30;;;29.00;47.90;;;;;;5058448;28;20451;-83
2022/04/20 09:07:07;;;;;;;3.47;2.27;;;28.60;47.60;;;;;;5061196;28;20467;-85
2022/04/20 09:09:36;;;;;;;4.80;2.40;;;28.70;49.20;;;;;;5059466;28;20476;-86
2022/04/20 09:12:07;;;;;;;4.73;2.87;;;28.80;50.40;;;;;;5044739;28;20459;-85
2022/04/20 09:14:35;;;;;;;3.97;2.00;;;29.10;49.10;;;;;;5057926;28;20483;-86
2022/04/20 09:17:02;;;;;;;4.67;2.80;;;29.00;48.70;;;;;;5051546;28;20456;-84
2022/04/20 09:19:29;;;;;;;4.57;2.20;;;28.00;47.40;;;;;;5051716;28;20490;-85
2022/04/20 09:21:56;;;;;;;7.33;2.27;;;27.10;48.10;;;;;;5052866;28;20473;-85
2022/04/20 09:24:23;;;;;;;3.17;2.10;;;28.30;50.80;;;;;;5058663;28;20454;-84
2022/04/20 09:26:52;;;;;;;4.20;2.20;;;28.20;50.80;;;;;;5052110;28;20831;-85
2022/04/20 09:29:19;;;;;;;3.93;2.03;;;27.50;46.10;;;;;;5048773;28;20946;-85
2022/04/20 09:31:47;;;;;;;7.23;2.60;;;28.00;49.40;;;;;;5055481;28;20459;-85
2022/04/20 09:34:34;;;;;;;5.50;2.33;;;28.60;49.20;;;;;;5053886;28;20486;-86
2022/04/20 09:37:12;;;;;;;4.03;2.20;;;29.60;49.70;;;;;;5066743;28;20831;-86
2022/04/20 09:39:39;;;;;;;3.83;2.10;;;29.70;47.20;;;;;;5058348;28;20651;-86
2022/04/20 09:42:09;;;;;;;5.73;2.03;;;30.30;49.10;;;;;;5064549;28;20462;-86
2022/04/20 09:44:39;;;;;;;3.80;2.33;;;29.50;46.00;;;;;;5051186;28;20873;-85
2022/04/20 09:49:57;;;;;;;5.60;2.60;;;28.30;44.50;;;;;;5034056;28;21188;-85
2022/04/20 09:52:25;;;;;;;4.60;2.27;;;29.00;47.00;;;;;;5060008;28;20436;-85
2022/04/20 09:54:53;;;;;;;4.40;2.70;;;29.20;46.70;;;;;;5051124;28;20863;-86
2022/04/20 09:57:22;;;;;;;3.10;1.90;;;29.40;45.70;;;;;;5056167;28;20497;-85
2022/04/20 10:00:00;;;;;;;4.83;2.47;;;30.10;44.00;;;;;;5058129;28;20470;-86
2022/04/20 10:02:28;;;;;;;3.93;2.03;;;28.80;44.20;;;;;;5064863;28;20455;-86
2022/04/20 10:04:56;;;;;;;7.33;2.27;;;29.00;46.00;;;;;;5067789;28;20447;-86
2022/04/20 10:07:23;;;;;;;6.17;2.20;;;30.10;47.90;;;;;;5066566;28;20452;-85
2022/04/20 10:09:50;;;;;;;3.10;2.20;;;31.10;44.90;;;;;;5067829;28;20471;-85
2022/04/20 10:12:18;;;;;;;2.80;1.97;;;30.80;45.10;;;;;;5072953;28;20460;-85
2022/04/20 10:17:43;;;;;;;4.10;1.77;;;30.10;43.60;;;;;;5069672;28;20492;-86
2022/04/20 10:20:10;;;;;;;4.10;2.27;;;31.10;44.70;;;;;;5067786;28;20535;-85
2022/04/20 10:22:39;;;;;;;4.40;2.40;;;30.50;45.40;;;;;;5069764;28;20455;-86
2022/04/20 10:25:07;;;;;;;3.40;1.93;;;31.10;41.70;;;;;;5067013;28;20823;-85
2022/04/20 10:27:40;;;;;;;3.83;1.97;;;31.10;42.20;;;;;;5060671;28;20455;-86
2022/04/20 10:30:16;;;;;;;3.93;2.13;;;31.60;43.90;;;;;;5059319;28;20478;-85
2022/04/20 10:32:52;;;;;;;4.70;2.47;;;32.40;42.90;;;;;;5057146;28;20550;-85
2022/04/20 10:35:21;;;;;;;5.97;2.10;;;31.70;43.10;;;;;;5075105;28;20529;-85
2022/04/20 10:38:09;;;;;;;3.63;2.23;;;32.60;43.60;;;;;;5058970;28;20964;-85
2022/04/20 10:40:56;;;;;;;3.53;1.83;;;32.60;41.10;;;;;;5055485;28;20479;-86
2022/04/20 10:43:25;;;;;;;3.20;2.50;;;32.50;43.90;;;;;;5064611;28;20447;-85
2022/04/20 10:46:12;;;;;;;5.13;2.30;;;32.80;42.00;;;;;;5072840;28;20446;-86
2022/04/20 10:48:55;;;;;;;6.87;3.03;;;32.80;42.30;;;;;;5069836;28;20507;-85
2022/04/20 10:51:24;;;;;;;3.30;2.20;;;32.40;39.80;;;;;;5071147;28;20775;-85
2022/04/20 10:53:53;;;;;;;5.13;2.50;;;32.40;43.10;;;;;;5071946;28;20862;-86
2022/04/20 10:56:21;;;;;;;5.30;2.30;;;33.60;41.30;;;;;;5065567;28;20505;-86
2022/04/20 10:58:52;;;;;;;5.03;2.13;;;33.40;39.20;;;;;;5063664;28;20457;-85
2022/04/20 11:01:21;;;;;;;3.70;2.13;;;33.50;42.00;;;;;;5071833;28;20465;-86
2022/04/20 11:04:05;;;;;;;4.60;2.50;;;32.60;39.40;;;;;;5060484;28;20488;-86
2022/04/20 11:07:08;;;;;;;3.93;1.93;;;32.40;40.40;;;;;;5055417;28;20585;-87
2022/04/20 11:09:49;;;;;;;3.90;2.33;;;32.30;42.00;;;;;;5043892;28;20478;-87
2022/04/20 11:21:16;;;;;;;3.07;1.90;;;33.80;43.70;;;;;;5056811;28;20448;-86
2022/04/20 11:24:01;;;;;;;2.87;1.87;;;34.20;39.40;;;;;;5066303;28;20550;-85
2022/04/20 11:26:30;;;;;;;4.50;2.20;;;35.20;38.00;;;;;;5057541;28;20456;-85
2022/04/20 11:28:59;;;;;;;3.40;2.27;;;33.80;37.30;;;;;;5065291;28;20471;-85
2022/04/20 11:31:26;;;;;;;2.80;1.70;;;33.30;38.80;;;;;;5057392;28;20444;-85
2022/04/20 11:33:54;;;;;;;3.30;2.27;;;33.20;38.60;;;;;;5045065;28;20461;-85
2022/04/20 11:36:22;;;;;;;3.70;1.87;;;31.70;38.00;;;;;;5062359;28;20488;-86
2022/04/20 11:38:50;;;;;;;2.73;2.30;;;31.50;40.80;;;;;;5066609;28;20455;-86
2022/04/20 11:41:19;;;;;;;2.60;1.80;;;31.70;40.30;;;;;;5068189;28;20953;-85
2022/04/20 11:43:49;;;;;;;3.40;1.90;;;32.50;40.00;;;;;;5075649;28;20505;-85
2022/04/20 11:46:17;;;;;;;3.03;2.27;;;33.60;43.30;;;;;;5057720;28;20455;-86
2022/04/20 11:48:52;;;;;;;3.30;1.80;;;34.40;39.20;;;;;;5058287;28;20829;-85
2022/04/20 11:51:25;;;;;;;3.47;1.70;;;33.80;36.10;;;;;;5061150;28;20459;-86
2022/04/20 11:53:53;;;;;;;4.60;2.40;;;32.50;36.50;;;;;;5053868;28;20636;-86
2022/04/20 11:56:33;;;;;;;5.67;1.80;;;32.30;38.70;;;;;;5063002;28;20490;-86
2022/04/20 11:59:00;;;;;;;2.80;1.90;;;32.10;41.40;;;;;;5062931;28;20463;-85
2022/04/20 12:01:29;;;;;;;3.17;1.73;;;33.10;40.70;;;;;;5075791;28;20482;-86
2022/04/20 12:03:56;;;;;;;3.47;1.70;;;34.10;35.20;;;;;;5076234;28;20545;-86
2022/04/20 12:06:25;;;;;;;2.77;1.53;;;32.70;37.40;;;;;;5075767;28;20845;-86
2022/04/20 12:08:54;;;;;;;2.50;1.70;;;35.50;38.70;;;;;;5075590;28;20473;-87
2022/04/20 12:11:21;;;;;;;4.33;1.70;;;34.90;40.20;;;;;;5075188;28;20455;-84
2022/04/20 12:13:54;;;;;;;3.47;1.47;;;34.50;37.00;;;;;;5072302;28;20454;-86
2022/04/20 12:16:23;;;;;;;2.30;1.33;;;35.30;39.40;;;;;;5066772;28;20529;-85
2022/04/20 12:18:50;;;;;;;3.67;1.50;;;35.40;39.30;;;;;;5066930;28;20454;-84
2022/04/20 12:21:40;;;;;;;2.50;2.00;;;35.10;36.00;;;;;;5054021;28;20530;-84
2022/04/20 12:24:08;;;;;;;3.50;1.80;;;35.20;37.90;;;;;;5056178;28;20455;-85
2022/04/20 12:26:35;;;;;;;3.80;1.90;;;35.30;36.70;;;;;;5059990;28;20448;-84
2022/04/20 12:29:05;;;;;;;4.43;2.00;;;35.30;37.40;;;;;;5056316;28;20470;-85
2022/04/20 12:31:33;;;;;;;3.37;1.70;;;35.60;37.60;;;;;;5054840;28;20451;-84
2022/04/20 12:34:01;;;;;;;4.80;2.50;;;35.00;40.10;;;;;;5056589;28;20454;-84
2022/04/20 12:36:29;;;;;;;3.97;2.20;;;34.00;40.10;;;;;;5055001;28;20480;-84
2022/04/20 12:38:59;;;;;;;4.90;2.60;;;34.30;37.30;;;;;;5050583;28;20469;-85
2022/04/20 12:41:43;;;;;;;3.60;2.77;;;35.00;38.20;;;;;;5048401;28;20540;-85
2022/04/20 12:44:38;;;;;;;3.53;2.40;;;35.20;40.60;;;;;;5038376;28;20487;-84
2022/04/20 12:47:38;;;;;;;3.10;2.30;;;34.30;38.90;;;;;;5039396;28;20956;-84
2022/04/20 12:50:16;;;;;;;3.63;2.40;;;33.80;38.40;;;;;;5059460;28;20483;-84
2022/04/20 12:52:53;;;;;;;7.57;2.70;;;34.90;40.50;;;;;;5071264;28;20859;-84
2022/04/20 12:55:22;;;;;;;3.37;2.77;;;34.40;38.80;;;;;;5070967;28;21009;-84
2022/04/20 13:03:34;;;;;;;4.97;3.10;;;34.20;37.10;;;;;;5060134;28;20427;-84
2022/04/20 13:06:01;;;;;;;3.83;2.77;;;34.60;37.70;;;;;;5068503;28;20454;-84
2022/04/20 13:08:28;;;;;;;3.50;2.80;;;34.10;39.30;;;;;;5068320;28;20468;-84
2022/04/20 13:10:59;;;;;;;4.47;3.47;;;34.30;39.20;;;;;;5068621;28;20471;-83
2022/04/20 13:13:27;;;;;;;4.23;3.23;;;34.90;38.90;;;;;;5048325;28;20495;-85
2022/04/20 13:15:55;;;;;;;4.70;3.47;;;34.50;37.30;;;;;;5062807;28;20471;-83
2022/04/20 13:18:25;;;;;;;7.60;3.43;;;34.20;39.10;;;;;;5066644;28;20509;-84
2022/04/20 13:20:52;;;;;;;7.17;3.03;;;33.50;37.70;;;;;;5068103;28;20517;-84
2022/04/20 13:23:20;;;;;;;5.83;3.43;;;32.90;38.50;;;;;;5073278;28;20451;-84
2022/04/20 13:28:38;;;;;;;5.00;3.90;;;33.00;37.70;;;;;;5063062;28;20474;-85
2022/04/20 13:31:08;;;;;;;4.77;3.50;;;32.60;37.40;;;;;;5062449;28;20524;-84
2022/04/20 13:33:38;;;;;;;4.53;3.20;;;32.00;39.10;;;;;;5062521;28;20495;-84
2022/04/20 13:36:08;;;;;;;4.40;3.60;;;31.40;39.80;;;;;;5062460;28;20480;-84
2022/04/20 13:38:34;;;;;;;3.57;3.17;;;32.20;39.10;;;;;;5068751;28;20463;-85
2022/04/20 13:41:02;;;;;;;5.27;3.50;;;31.90;39.70;;;;;;5062097;28;20459;-84
2022/04/20 13:43:28;;;;;;;4.60;3.03;;;32.20;40.40;;;;;;5062186;28;20448;-84
2022/04/20 13:45:57;;;;;;;5.67;2.90;;;32.10;40.40;;;;;;5062150;28;20448;-86
2022/04/20 13:48:23;;;;;;;5.07;2.73;;;32.30;41.80;;;;;;5057939;28;20527;-84
2022/04/20 13:50:50;;;;;;;4.70;2.97;;;32.30;38.70;;;;;;5058126;28;20471;-83
2022/04/20 13:53:17;;;;;;;4.00;3.20;;;31.60;39.60;;;;;;5060527;28;20452;-83